Time;durP1;ratioP1;P1;durP2;ratioP2;P2;SDS_P1;SDS_P2;PMS_P1;PMS_P2;Temp;Humidity;BMP_temperature;BMP_pressure;BME280_temperature;BME280_humidity;BME280_pressure;Samples;Min_cycle;Max_cycle;Signal;HPM_P1;HPM_P2
2022/03/13 00:07:28;;;;;;;0.20;0.00;;;10.80;99.90;;;;;;21040713;28;20208;-72
2022/03/13 00:17:32;;;;;;;0.20;0.00;;;10.70;99.90;;;;;;21055016;28;20217;-72
2022/03/13 00:27:37;;;;;;;0.20;0.10;;;10.80;99.90;;;;;;21055484;28;20201;-73
2022/03/13 00:37:41;;;;;;;0.20;0.10;;;10.90;99.90;;;;;;21055033;28;20236;-73
2022/03/13 00:47:50;;;;;;;0.20;0.10;;;10.70;99.90;;;;;;21047750;28;20211;-66
2022/03/13 00:57:54;;;;;;;0.20;0.03;;;11.00;99.90;;;;;;21047865;28;20224;-65
2022/03/13 01:08:00;;;;;;;0.20;0.00;;;11.10;99.90;;;;;;21053421;28;20193;-67
2022/03/13 01:18:04;;;;;;;0.20;0.00;;;10.90;99.90;;;;;;21053267;28;20231;-67
2022/03/13 01:28:09;;;;;;;0.20;0.00;;;10.60;99.90;;;;;;21052968;28;20208;-66
2022/03/13 01:38:15;;;;;;;0.20;0.00;;;10.60;99.90;;;;;;21066224;28;20255;-66
2022/03/13 01:48:20;;;;;;;0.20;0.00;;;10.50;99.90;;;;;;21051779;28;20193;-66
2022/03/13 01:58:24;;;;;;;0.20;0.00;;;10.50;99.90;;;;;;21052272;28;20282;-66
2022/03/13 02:08:30;;;;;;;0.20;0.10;;;10.40;99.90;;;;;;21051523;28;20201;-67
2022/03/13 02:18:34;;;;;;;0.20;0.10;;;10.30;99.90;;;;;;21051153;28;20293;-66
2022/03/13 02:28:43;;;;;;;0.20;0.10;;;10.30;99.90;;;;;;21050881;28;20227;-65
2022/03/13 02:38:47;;;;;;;0.20;0.10;;;10.10;99.90;;;;;;21061887;28;20235;-66
2022/03/13 02:48:52;;;;;;;0.20;0.00;;;9.90;99.90;;;;;;21064125;28;20203;-67
2022/03/13 02:58:56;;;;;;;0.20;0.10;;;9.90;99.90;;;;;;21063766;28;20224;-66
2022/03/13 03:09:02;;;;;;;0.20;0.10;;;9.90;99.90;;;;;;21062446;28;20199;-65
2022/03/13 03:19:05;;;;;;;0.20;0.00;;;9.70;99.90;;;;;;21062321;28;20220;-65
2022/03/13 03:29:11;;;;;;;0.20;0.10;;;9.70;99.90;;;;;;21060508;28;20209;-65
2022/03/13 03:39:16;;;;;;;0.20;0.00;;;9.60;99.90;;;;;;21057702;28;20267;-65
2022/03/13 03:49:21;;;;;;;0.20;0.00;;;9.50;99.90;;;;;;21059974;28;20203;-66
2022/03/13 03:59:25;;;;;;;0.20;0.00;;;9.60;99.90;;;;;;21058955;28;20224;-66
2022/03/13 04:09:30;;;;;;;0.20;0.00;;;9.40;99.90;;;;;;21059943;28;20703;-73
2022/03/13 04:19:34;;;;;;;0.20;0.10;;;9.50;99.90;;;;;;21056664;28;20229;-73
2022/03/13 04:29:39;;;;;;;0.30;0.20;;;9.70;99.90;;;;;;21056618;28;20213;-72
2022/03/13 04:39:44;;;;;;;0.20;0.00;;;9.80;99.90;;;;;;21055412;28;20242;-73
2022/03/13 04:49:49;;;;;;;0.20;0.00;;;9.90;99.90;;;;;;21055016;28;20189;-72
2022/03/13 04:59:53;;;;;;;0.20;0.00;;;10.00;99.90;;;;;;21052532;28;20224;-72
2022/03/13 05:09:58;;;;;;;5.40;5.10;;;10.10;99.90;;;;;;21055375;28;20212;-64
2022/03/13 05:20:02;;;;;;;0.20;0.00;;;10.30;99.90;;;;;;21051679;28;20216;-66
2022/03/13 05:30:08;;;;;;;0.20;0.00;;;10.30;99.90;;;;;;21035714;28;20223;-66
2022/03/13 05:40:15;;;;;;;0.23;0.23;;;10.40;99.90;;;;;;21052145;28;20226;-79
2022/03/13 05:50:21;;;;;;;0.20;0.10;;;10.50;99.90;;;;;;21053109;28;20184;-82
2022/03/13 06:00:26;;;;;;;0.20;0.00;;;10.40;99.90;;;;;;21053399;28;20226;-66
2022/03/13 06:10:31;;;;;;;0.20;0.00;;;10.30;99.90;;;;;;21057691;28;20260;-66
2022/03/13 06:20:35;;;;;;;0.20;0.00;;;10.20;99.90;;;;;;21056624;28;20226;-65
2022/03/13 06:30:40;;;;;;;0.20;0.00;;;10.20;99.90;;;;;;21064754;28;20208;-66
2022/03/13 06:40:45;;;;;;;0.20;0.00;;;10.30;99.90;;;;;;21066875;28;20236;-83
2022/03/13 06:50:50;;;;;;;0.20;0.00;;;10.40;99.90;;;;;;21063221;28;20189;-82
2022/03/13 07:00:54;;;;;;;0.20;0.10;;;10.50;99.90;;;;;;21064043;28;20217;-81
2022/03/13 07:10:59;;;;;;;0.20;0.00;;;10.60;99.90;;;;;;21062047;28;20234;-66
2022/03/13 07:21:03;;;;;;;0.20;0.00;;;10.80;99.90;;;;;;21061658;28;20220;-65
2022/03/13 07:31:08;;;;;;;0.20;0.10;;;11.00;99.90;;;;;;21059691;28;20314;-68
2022/03/13 07:41:12;;;;;;;0.20;0.10;;;11.20;99.90;;;;;;21040139;28;20255;-66
2022/03/13 07:51:19;;;;;;;0.20;0.10;;;11.50;99.90;;;;;;21037218;28;20210;-65
2022/03/13 08:01:23;;;;;;;0.20;0.00;;;12.40;99.90;;;;;;21057211;28;20220;-66
2022/03/13 08:11:29;;;;;;;0.20;0.00;;;13.00;99.90;;;;;;21056460;28;20211;-66
2022/03/13 08:21:33;;;;;;;0.20;0.00;;;13.00;99.90;;;;;;21054577;28;20255;-67
2022/03/13 08:31:39;;;;;;;0.20;0.00;;;13.60;99.90;;;;;;21053868;28;20213;-67
2022/03/13 08:41:43;;;;;;;0.20;0.10;;;13.90;99.90;;;;;;21050862;28;20236;-68
2022/03/13 08:51:48;;;;;;;0.20;0.00;;;14.10;99.90;;;;;;21055215;28;20189;-65
2022/03/13 09:01:52;;;;;;;0.20;0.00;;;14.50;99.90;;;;;;21051288;28;20235;-79
2022/03/13 09:11:58;;;;;;;0.20;0.10;;;14.60;99.90;;;;;;21049260;28;20199;-77
2022/03/13 09:22:01;;;;;;;0.20;0.00;;;14.80;99.90;;;;;;21049784;28;20240;-68
2022/03/13 09:32:08;;;;;;;0.20;0.07;;;15.10;99.90;;;;;;21049747;28;20216;-68
2022/03/13 09:42:12;;;;;;;0.20;0.00;;;14.70;99.90;;;;;;21051277;28;20228;-67
2022/03/13 09:52:17;;;;;;;0.20;0.10;;;14.70;99.90;;;;;;21065683;28;20189;-68
2022/03/13 10:02:21;;;;;;;0.20;0.00;;;14.60;99.90;;;;;;21064011;28;20212;-67
2022/03/13 10:12:27;;;;;;;0.20;0.00;;;14.60;99.90;;;;;;21062164;28;20202;-68
2022/03/13 10:22:31;;;;;;;0.20;0.00;;;14.20;99.90;;;;;;21058775;28;20765;-69
2022/03/13 10:32:36;;;;;;;0.20;0.00;;;14.00;99.90;;;;;;21055672;28;20208;-73
2022/03/13 10:42:44;;;;;;;0.20;0.00;;;14.20;99.90;;;;;;21053046;28;20247;-77
2022/03/13 10:52:49;;;;;;;0.20;0.00;;;13.60;99.90;;;;;;21054050;28;20204;-67
2022/03/13 11:02:53;;;;;;;0.20;0.00;;;13.30;99.90;;;;;;21048375;28;20247;-67
2022/03/13 11:12:59;;;;;;;0.20;0.10;;;12.90;99.90;;;;;;21049318;28;20188;-79
2022/03/13 11:23:02;;;;;;;0.20;0.10;;;12.60;99.90;;;;;;21051457;28;20220;-79
2022/03/13 11:33:08;;;;;;;0.20;0.10;;;12.60;99.90;;;;;;21046473;28;20221;-79
2022/03/13 11:43:13;;;;;;;0.20;0.07;;;13.00;99.90;;;;;;21047126;28;20236;-78
2022/03/13 11:53:19;;;;;;;2.53;0.73;;;13.90;99.90;;;;;;21045205;28;20447;-77
2022/03/13 12:04:16;;;;;;;0.20;0.00;;;14.70;99.90;;;;;;21042636;28;20228;-66
2022/03/13 12:14:22;;;;;;;0.20;0.10;;;14.80;99.90;;;;;;21037088;28;20207;-65
2022/03/13 12:24:28;;;;;;;0.20;0.00;;;14.70;99.90;;;;;;21041775;28;20229;-73
2022/03/13 12:34:33;;;;;;;0.20;0.10;;;15.10;99.90;;;;;;21025590;28;20217;-78
2022/03/13 12:44:37;;;;;;;0.20;0.10;;;16.80;99.90;;;;;;21021882;28;20224;-67
2022/03/13 12:54:42;;;;;;;0.20;0.10;;;17.50;99.90;;;;;;21039693;28;20310;-67
2022/03/13 13:04:48;;;;;;;0.20;0.00;;;18.10;99.90;;;;;;21034739;28;20233;-79
2022/03/13 13:14:53;;;;;;;0.20;0.00;;;18.90;99.90;;;;;;21038558;28;20214;-80
2022/03/13 13:24:58;;;;;;;0.20;0.10;;;20.10;99.90;;;;;;21040067;28;20232;-80
2022/03/13 13:35:10;;;;;;;0.20;0.00;;;20.40;99.90;;;;;;21045266;28;20251;-81
2022/03/13 13:45:37;;;;;;;0.20;0.10;;;19.90;99.90;;;;;;21040257;28;20228;-79
2022/03/13 13:55:42;;;;;;;0.20;0.10;;;19.50;99.90;;;;;;21040977;28;20201;-80
2022/03/13 14:05:46;;;;;;;0.20;0.10;;;21.00;99.90;;;;;;21039969;28;20242;-79
2022/03/13 14:15:57;;;;;;;0.20;0.10;;;21.60;99.90;;;;;;21040138;28;20252;-81
2022/03/13 14:26:01;;;;;;;0.20;0.00;;;20.90;99.90;;;;;;21041539;28;20375;-82
2022/03/13 14:36:08;;;;;;;0.20;0.10;;;20.90;99.90;;;;;;21052030;28;20500;-82
2022/03/13 14:46:13;;;;;;;0.20;0.00;;;19.50;99.90;;;;;;21051668;28;20233;-78
2022/03/13 14:56:18;;;;;;;0.20;0.00;;;18.20;99.90;;;;;;21051169;28;20193;-79
2022/03/13 15:06:22;;;;;;;0.20;0.00;;;18.10;99.90;;;;;;21049182;28;20503;-67
2022/03/13 15:16:27;;;;;;;0.20;0.10;;;18.80;99.90;;;;;;21048220;28;20196;-66
2022/03/13 15:26:31;;;;;;;0.20;0.10;;;19.10;99.90;;;;;;21052808;28;20276;-81
2022/03/13 15:36:36;;;;;;;0.20;0.00;;;18.50;99.90;;;;;;21051754;28;20361;-80
2022/03/13 15:46:39;;;;;;;0.20;0.00;;;19.50;99.90;;;;;;21051174;28;20224;-80
2022/03/13 15:56:45;;;;;;;0.20;0.10;;;19.90;99.90;;;;;;21049463;28;20208;-81
2022/03/13 16:06:48;;;;;;;0.20;0.00;;;20.10;99.90;;;;;;21045360;28;20239;-80
2022/03/13 16:16:54;;;;;;;0.20;0.00;;;19.90;99.90;;;;;;21046708;28;20193;-77
2022/03/13 16:26:59;;;;;;;0.20;0.10;;;18.60;99.90;;;;;;21043921;28;20228;-79
2022/03/13 16:37:05;;;;;;;0.20;0.00;;;18.00;99.90;;;;;;21040943;28;20296;-80
2022/03/13 16:47:09;;;;;;;0.20;0.00;;;17.90;99.90;;;;;;21040469;28;20240;-79
2022/03/13 16:57:15;;;;;;;0.20;0.00;;;16.40;99.90;;;;;;21045259;28;20479;-79
2022/03/13 17:07:19;;;;;;;0.20;0.10;;;16.00;99.90;;;;;;21043751;28;20229;-79
2022/03/13 17:17:25;;;;;;;0.20;0.00;;;16.00;99.90;;;;;;21043641;28;20719;-79
2022/03/13 17:27:29;;;;;;;0.20;0.00;;;15.30;99.90;;;;;;21023005;28;20247;-77
2022/03/13 17:37:35;;;;;;;0.20;0.00;;;14.80;99.90;;;;;;21040325;28;20432;-77
2022/03/13 17:47:39;;;;;;;0.20;0.00;;;14.60;99.90;;;;;;21014653;28;20261;-78
2022/03/13 17:57:44;;;;;;;0.20;0.00;;;14.40;99.90;;;;;;21041932;28;20196;-65
2022/03/13 18:07:48;;;;;;;0.20;0.00;;;14.10;99.90;;;;;;21049350;28;20240;-67
2022/03/13 18:17:54;;;;;;;0.20;0.00;;;13.60;99.90;;;;;;21056795;28;20205;-80
2022/03/13 18:27:58;;;;;;;0.20;0.10;;;13.40;99.90;;;;;;21058355;28;20276;-79
2022/03/13 18:38:03;;;;;;;3.80;3.60;;;13.00;99.90;;;;;;21059819;28;20248;-75
2022/03/13 18:48:07;;;;;;;0.20;0.10;;;12.90;99.90;;;;;;21052753;28;20395;-69
2022/03/13 18:58:13;;;;;;;0.20;0.10;;;12.70;99.90;;;;;;21055510;28;20242;-69
2022/03/13 19:08:17;;;;;;;0.30;0.30;;;12.90;99.90;;;;;;21033912;28;20224;-79
2022/03/13 19:18:23;;;;;;;0.20;0.10;;;13.10;99.90;;;;;;21050416;28;20679;-80
2022/03/13 19:28:27;;;;;;;0.20;0.10;;;12.90;99.90;;;;;;21035686;28;20248;-77
2022/03/13 19:38:32;;;;;;;0.20;0.10;;;13.00;99.90;;;;;;21029590;28;20228;-77
2022/03/13 19:48:36;;;;;;;0.20;0.00;;;13.20;99.90;;;;;;21022612;28;20224;-66
2022/03/13 19:58:41;;;;;;;0.20;0.00;;;13.20;99.90;;;;;;21047048;28;20201;-67
2022/03/13 20:08:45;;;;;;;0.20;0.00;;;13.30;99.90;;;;;;21030118;28;20221;-68
2022/03/13 20:18:50;;;;;;;0.20;0.00;;;13.40;99.90;;;;;;21031185;28;20203;-76
2022/03/13 20:28:54;;;;;;;0.20;0.00;;;13.40;99.90;;;;;;21044792;28;20247;-76
2022/03/13 20:39:00;;;;;;;0.20;0.10;;;13.40;99.90;;;;;;21045505;28;20220;-67
2022/03/13 20:49:04;;;;;;;0.20;0.10;;;13.40;99.90;;;;;;21079472;28;20239;-67
2022/03/13 20:59:12;;;;;;;0.20;0.00;;;13.50;99.90;;;;;;21073391;28;20255;-68
2022/03/13 21:09:16;;;;;;;0.20;0.00;;;13.30;99.90;;;;;;21021668;28;20236;-65
2022/03/13 21:19:23;;;;;;;0.20;0.00;;;13.00;99.90;;;;;;21024117;28;20371;-80
2022/03/13 21:29:28;;;;;;;0.20;0.10;;;12.90;99.90;;;;;;21043668;28;20215;-78
2022/03/13 21:39:34;;;;;;;0.20;0.10;;;12.80;99.90;;;;;;21084773;28;20277;-79
2022/03/13 21:49:41;;;;;;;0.20;0.00;;;12.70;99.90;;;;;;21085229;28;20211;-78
2022/03/13 21:59:46;;;;;;;0.20;0.10;;;12.70;99.90;;;;;;21047106;28;20290;-68
2022/03/13 22:09:51;;;;;;;0.20;0.10;;;12.70;99.90;;;;;;21049428;28;20209;-67
2022/03/13 22:19:57;;;;;;;0.20;0.10;;;12.80;99.90;;;;;;21038614;28;20280;-68
2022/03/13 22:30:04;;;;;;;0.20;0.10;;;12.70;99.90;;;;;;21046656;28;20227;-67
2022/03/13 22:40:10;;;;;;;0.20;0.10;;;12.60;99.90;;;;;;21044984;28;20236;-66
2022/03/13 22:50:16;;;;;;;0.20;0.00;;;12.50;99.90;;;;;;21047812;28;20203;-78
2022/03/13 23:00:21;;;;;;;0.20;0.10;;;12.30;99.90;;;;;;21060647;28;20235;-78
2022/03/13 23:10:30;;;;;;;0.20;0.10;;;12.10;99.90;;;;;;21060314;28;20197;-66
2022/03/13 23:20:35;;;;;;;0.20;0.00;;;12.00;99.90;;;;;;21059699;28;20220;-66
2022/03/13 23:30:40;;;;;;;0.20;0.10;;;12.30;99.90;;;;;;21054055;28;20227;-67
2022/03/13 23:40:46;;;;;;;0.20;0.10;;;12.30;99.90;;;;;;21050282;28;20511;-68
2022/03/13 23:50:49;;;;;;;0.20;0.10;;;12.10;99.90;;;;;;21051851;28;20204;-69
